Terminal Aerodrome Forecast
Issued by NWS Missoula, MT

Home | Current Version | Previous Version | Text Only | Print | Product List | Glossary On
Versions: 1 2 3 4 5 6 7 8 9 10 11 12 13 14 15 16
282
FTUS45 KMSO 251723
TAFGPI
TAF
KGPI 251723Z 2518/2618 19011KT P6SM VCSH SCT060
     FM260200 VRB05KT P6SM FEW030 BKN040=

USA.gov is the U.S. government's official web portal to all federal, state and local government web resources and services.